createdAt,value
2023-03-19T00:00:34.788Z,3.33
2023-03-19T00:03:01.811Z,3.53
2023-03-19T00:05:28.815Z,2.70
2023-03-19T00:07:55.665Z,2.67
2023-03-19T00:10:22.443Z,2.60
2023-03-19T00:12:49.186Z,2.60
2023-03-19T00:15:16.137Z,3.87
2023-03-19T00:17:43.410Z,2.30
2023-03-19T00:20:11.947Z,3.33
2023-03-19T00:22:39.610Z,2.22
2023-03-19T00:25:07.082Z,3.10
2023-03-19T00:27:33.883Z,4.20
2023-03-19T00:30:02.065Z,5.43
2023-03-19T00:32:28.829Z,4.17
2023-03-19T00:34:55.630Z,2.90
2023-03-19T00:37:22.580Z,4.43
2023-03-19T00:39:49.311Z,2.97
2023-03-19T00:42:16.679Z,3.57
2023-03-19T00:44:43.485Z,4.20
2023-03-19T00:47:10.263Z,2.55
2023-03-19T00:49:36.963Z,2.72
2023-03-19T00:52:04.013Z,2.33
2023-03-19T00:54:32.292Z,2.70
2023-03-19T00:56:59.251Z,2.50
2023-03-19T00:59:26.210Z,2.80
2023-03-19T01:01:53.026Z,2.50
2023-03-19T01:04:19.811Z,3.50
2023-03-19T01:06:46.541Z,2.88
2023-03-19T01:09:13.311Z,3.60
2023-03-19T01:11:40.403Z,2.93
2023-03-19T01:14:07.464Z,4.18
2023-03-19T01:16:36.840Z,3.10
2023-03-19T01:19:03.893Z,3.73
2023-03-19T01:21:31.201Z,4.97
2023-03-19T01:23:58.572Z,4.20
2023-03-19T01:26:25.330Z,6.22
2023-03-19T01:28:52.527Z,4.27
2023-03-19T01:31:19.440Z,4.47
2023-03-19T01:33:46.562Z,7.30
2023-03-19T01:36:13.320Z,4.22
2023-03-19T01:38:40.158Z,4.30
2023-03-19T01:41:07.720Z,4.85
2023-03-19T01:43:34.497Z,5.93
2023-03-19T01:46:08.114Z,3.83
2023-03-19T01:48:39.602Z,4.93
2023-03-19T01:51:07.580Z,4.13
2023-03-19T01:53:34.479Z,2.83
2023-03-19T01:56:27.100Z,3.30
2023-03-19T01:58:56.561Z,4.50
2023-03-19T02:01:23.320Z,3.50
2023-03-19T02:03:51.093Z,4.50
2023-03-19T02:06:19.001Z,2.83
2023-03-19T02:08:45.991Z,4.50
2023-03-19T02:11:12.772Z,2.58
2023-03-19T02:13:39.504Z,3.95
2023-03-19T02:16:06.769Z,2.93
2023-03-19T02:18:33.576Z,3.40
2023-03-19T02:21:16.530Z,4.82
2023-03-19T02:24:02.449Z,2.72
2023-03-19T02:26:29.473Z,5.13
2023-03-19T02:28:56.510Z,3.90
2023-03-19T02:31:23.666Z,3.07
2023-03-19T02:34:19.465Z,3.45
2023-03-19T02:37:00.053Z,3.05
2023-03-19T02:39:36.264Z,3.03
2023-03-19T02:42:02.989Z,3.95
2023-03-19T02:44:29.878Z,2.55
2023-03-19T02:46:56.799Z,3.53
2023-03-19T02:49:23.828Z,3.70
2023-03-19T02:51:51.655Z,3.17
2023-03-19T02:54:18.430Z,4.40
2023-03-19T02:56:46.154Z,3.50
2023-03-19T02:59:13.356Z,4.00
2023-03-19T03:01:40.160Z,5.57
2023-03-19T03:04:06.973Z,4.68
2023-03-19T03:06:33.706Z,3.00
2023-03-19T03:09:01.121Z,3.63
2023-03-19T03:11:27.892Z,4.45
2023-03-19T03:13:54.824Z,3.85
2023-03-19T03:16:21.782Z,4.43
2023-03-19T03:18:48.683Z,4.05
2023-03-19T03:21:15.590Z,5.32
2023-03-19T03:23:42.470Z,3.60
2023-03-19T03:26:09.293Z,4.70
2023-03-19T03:28:36.298Z,6.93
2023-03-19T03:31:03.736Z,5.35
2023-03-19T03:33:30.829Z,4.60
2023-03-19T03:35:57.676Z,3.00
2023-03-19T03:38:24.673Z,3.22
2023-03-19T03:40:52.630Z,3.70
2023-03-19T03:43:23.070Z,3.53
2023-03-19T03:45:49.912Z,4.18
2023-03-19T03:48:16.829Z,3.60
2023-03-19T03:50:43.891Z,4.82
2023-03-19T03:53:12.072Z,5.65
2023-03-19T03:55:39.096Z,5.55
2023-03-19T03:58:05.845Z,6.45
2023-03-19T04:00:32.794Z,3.50
2023-03-19T04:02:59.801Z,4.50
2023-03-19T04:05:26.653Z,5.20
2023-03-19T04:07:53.656Z,4.13
2023-03-19T04:10:20.469Z,3.45
2023-03-19T04:12:47.706Z,3.97
2023-03-19T04:15:14.536Z,5.88
2023-03-19T04:17:41.807Z,3.88
2023-03-19T04:20:09.917Z,4.75
2023-03-19T04:22:36.693Z,4.13
2023-03-19T04:25:04.959Z,6.45
2023-03-19T04:27:31.706Z,4.13
2023-03-19T04:29:58.425Z,4.65
2023-03-19T04:32:25.196Z,4.28
2023-03-19T04:34:52.397Z,4.82
2023-03-19T04:37:19.432Z,5.80
2023-03-19T04:39:47.012Z,4.35
2023-03-19T04:42:13.759Z,4.72
2023-03-19T04:44:40.749Z,5.00
2023-03-19T04:47:08.055Z,3.67
2023-03-19T04:49:34.791Z,3.65
2023-03-19T04:52:01.674Z,3.72
2023-03-19T04:54:28.562Z,4.38
2023-03-19T04:56:55.327Z,4.82
2023-03-19T04:59:23.194Z,7.13
2023-03-19T05:01:50.153Z,4.20
2023-03-19T05:04:17.791Z,3.47
2023-03-19T05:06:44.638Z,3.22
2023-03-19T05:09:11.571Z,3.65
2023-03-19T05:11:38.410Z,4.47
2023-03-19T05:14:05.653Z,5.18
2023-03-19T05:16:33.048Z,2.83
2023-03-19T05:18:59.799Z,4.28
2023-03-19T05:21:26.799Z,4.35
2023-03-19T05:23:54.788Z,5.75
2023-03-19T05:26:21.761Z,3.97
2023-03-19T05:28:48.660Z,3.95
2023-03-19T05:31:15.749Z,4.00
2023-03-19T05:33:42.496Z,4.20
2023-03-19T05:36:09.325Z,4.13
2023-03-19T05:38:36.257Z,3.45
2023-03-19T05:41:06.808Z,6.03
2023-03-19T05:43:33.928Z,3.65
2023-03-19T05:46:00.718Z,3.40
2023-03-19T05:48:27.482Z,3.60
2023-03-19T05:50:54.232Z,4.50
2023-03-19T05:53:21.645Z,3.67
2023-03-19T05:55:48.639Z,4.10
2023-03-19T05:58:16.877Z,5.15
2023-03-19T06:00:43.972Z,4.60
2023-03-19T06:03:11.103Z,4.32
2023-03-19T06:05:37.907Z,4.68
2023-03-19T06:08:04.862Z,3.90
2023-03-19T06:10:31.767Z,4.00
2023-03-19T06:12:58.584Z,3.10
2023-03-19T06:15:25.351Z,3.35
2023-03-19T06:17:52.081Z,3.23
2023-03-19T06:20:18.964Z,3.85
2023-03-19T06:22:45.744Z,4.13
2023-03-19T06:25:13.015Z,4.07
2023-03-19T06:27:40.227Z,3.35
2023-03-19T06:30:07.603Z,2.95
2023-03-19T06:32:34.376Z,3.27
2023-03-19T06:35:01.401Z,4.50
2023-03-19T06:37:28.218Z,3.53
2023-03-19T06:39:54.965Z,3.00
2023-03-19T06:42:22.246Z,4.03
2023-03-19T06:44:49.934Z,2.70
2023-03-19T06:47:17.808Z,3.50
2023-03-19T06:49:44.643Z,3.20
2023-03-19T06:52:11.437Z,3.97
2023-03-19T06:54:38.605Z,3.50
2023-03-19T06:57:05.750Z,3.50
2023-03-19T06:59:32.596Z,3.37
2023-03-19T07:01:59.385Z,4.80
2023-03-19T07:04:26.314Z,4.27
2023-03-19T07:06:53.034Z,5.17
2023-03-19T07:09:19.737Z,4.00
2023-03-19T07:11:46.504Z,4.43
2023-03-19T07:14:13.284Z,3.10
2023-03-19T07:16:40.417Z,3.13
2023-03-19T07:19:07.216Z,3.10
2023-03-19T07:21:34.032Z,2.87
2023-03-19T07:24:00.816Z,2.47
2023-03-19T07:26:27.731Z,3.10
2023-03-19T07:28:54.513Z,2.83
2023-03-19T07:31:21.362Z,3.43
2023-03-19T07:33:48.062Z,1.80
2023-03-19T07:36:14.855Z,1.90
2023-03-19T07:38:41.589Z,1.77
2023-03-19T07:41:08.348Z,1.70
2023-03-19T07:43:35.500Z,2.30
2023-03-19T07:46:02.981Z,1.90
2023-03-19T07:48:29.768Z,1.93
2023-03-19T07:50:56.612Z,1.70
2023-03-19T07:53:23.375Z,2.17
2023-03-19T07:55:50.165Z,1.80
2023-03-19T07:58:17.114Z,1.63
2023-03-19T08:00:44.965Z,1.53
2023-03-19T08:03:11.713Z,1.80
2023-03-19T08:05:38.671Z,1.97
2023-03-19T08:08:05.610Z,1.67
2023-03-19T08:10:35.489Z,1.57
2023-03-19T08:13:05.159Z,1.47
2023-03-19T08:15:31.962Z,1.03
2023-03-19T08:18:03.445Z,1.13
2023-03-19T08:20:30.270Z,1.30
2023-03-19T08:22:57.594Z,1.10
2023-03-19T08:25:24.782Z,1.30
2023-03-19T08:27:51.595Z,1.70
2023-03-19T08:30:18.511Z,0.97
2023-03-19T08:32:45.340Z,1.40
2023-03-19T08:35:12.445Z,1.47
2023-03-19T08:37:39.243Z,1.70
2023-03-19T08:40:06.652Z,0.90
2023-03-19T08:42:34.413Z,0.93
2023-03-19T08:45:01.225Z,1.07
2023-03-19T08:47:27.996Z,1.00
2023-03-19T08:49:54.757Z,1.10
2023-03-19T08:52:21.559Z,1.27
2023-03-19T08:54:48.385Z,1.07
2023-03-19T08:57:15.553Z,0.90
2023-03-19T08:59:42.734Z,1.10
2023-03-19T09:02:12.335Z,0.90
2023-03-19T09:04:43.186Z,1.50
2023-03-19T09:07:13.206Z,1.20
2023-03-19T09:09:40.841Z,1.07
2023-03-19T09:12:08.086Z,1.60
2023-03-19T09:14:35.361Z,1.30
2023-03-19T09:17:02.387Z,1.20
2023-03-19T09:19:29.331Z,1.20
2023-03-19T09:21:56.421Z,1.00
2023-03-19T09:24:23.206Z,1.13
2023-03-19T09:26:49.964Z,0.90
2023-03-19T09:29:16.829Z,0.90
2023-03-19T09:31:43.625Z,0.67
2023-03-19T09:34:10.737Z,1.00
2023-03-19T09:36:37.935Z,1.17
2023-03-19T09:39:05.478Z,0.83
2023-03-19T09:41:37.934Z,0.63
2023-03-19T09:44:18.093Z,0.80
2023-03-19T09:46:53.682Z,1.10
2023-03-19T09:49:28.838Z,1.17
2023-03-19T09:52:18.486Z,0.50
2023-03-19T09:54:47.021Z,0.80
2023-03-19T09:57:15.117Z,0.83
2023-03-19T09:59:42.091Z,0.80
2023-03-19T10:02:27.203Z,0.90
2023-03-19T10:05:01.456Z,0.70
2023-03-19T10:07:34.015Z,1.00
2023-03-19T10:10:12.975Z,0.60
2023-03-19T10:12:51.150Z,0.60
2023-03-19T10:15:19.845Z,0.60
2023-03-19T10:17:55.848Z,1.00
2023-03-19T10:20:32.954Z,1.10
2023-03-19T10:23:26.436Z,0.63
2023-03-19T10:25:55.408Z,0.80
2023-03-19T10:28:22.657Z,0.70
2023-03-19T10:31:10.161Z,0.90
2023-03-19T10:33:44.281Z,0.70
2023-03-19T10:36:13.354Z,0.67
2023-03-19T10:38:42.597Z,0.90
2023-03-19T10:41:18.200Z,0.80
2023-03-19T10:43:53.445Z,0.60
2023-03-19T10:46:21.932Z,1.17
2023-03-19T10:48:49.036Z,0.70
2023-03-19T10:51:24.392Z,0.60
2023-03-19T10:53:53.184Z,0.73
2023-03-19T10:56:23.962Z,0.70
2023-03-19T10:59:00.946Z,1.87
2023-03-19T11:01:33.433Z,1.47
2023-03-19T11:04:01.856Z,2.30
2023-03-19T11:06:36.145Z,0.70
2023-03-19T11:09:09.169Z,0.73
2023-03-19T11:11:37.505Z,0.60
2023-03-19T11:14:20.517Z,0.63
2023-03-19T11:16:49.511Z,0.60
2023-03-19T11:19:21.844Z,1.43
2023-03-19T11:22:03.779Z,0.90
2023-03-19T11:24:36.407Z,0.60
2023-03-19T11:27:03.464Z,0.63
2023-03-19T11:29:30.348Z,0.80
2023-03-19T11:32:18.679Z,0.87
2023-03-19T11:34:59.093Z,1.13
2023-03-19T11:37:54.776Z,1.00
2023-03-19T11:40:31.512Z,0.70
2023-03-19T11:43:00.521Z,0.80
2023-03-19T11:45:42.239Z,0.60
2023-03-19T11:48:48.458Z,1.03
2023-03-19T11:51:23.095Z,0.97
2023-03-19T11:54:01.528Z,0.67
2023-03-19T11:57:04.550Z,0.90
2023-03-19T11:59:50.067Z,1.10
2023-03-19T12:02:42.067Z,0.70
2023-03-19T12:05:21.922Z,0.87
2023-03-19T12:07:56.948Z,1.00
2023-03-19T12:10:42.964Z,0.93
2023-03-19T12:13:31.230Z,0.87
2023-03-19T12:15:57.989Z,1.37
2023-03-19T12:18:47.126Z,0.57
2023-03-19T12:21:19.705Z,0.90
2023-03-19T12:23:49.711Z,0.97
2023-03-19T12:26:37.526Z,1.17
2023-03-19T12:29:22.126Z,0.93
2023-03-19T12:32:07.512Z,0.90
2023-03-19T12:34:36.344Z,1.00
2023-03-19T12:37:30.256Z,1.77
2023-03-19T12:40:22.991Z,2.67
2023-03-19T12:42:50.148Z,1.47
2023-03-19T12:45:31.251Z,1.37
2023-03-19T12:48:02.636Z,1.27
2023-03-19T12:50:30.634Z,1.43
2023-03-19T12:52:58.693Z,1.73
2023-03-19T12:55:48.833Z,1.67
2023-03-19T12:58:31.746Z,1.60
2023-03-19T13:01:00.182Z,1.80
2023-03-19T13:03:45.135Z,2.80
2023-03-19T13:06:24.567Z,1.50
2023-03-19T13:09:03.861Z,1.60
2023-03-19T13:11:52.231Z,2.20
2023-03-19T13:14:46.114Z,1.40
2023-03-19T13:17:41.534Z,1.30
2023-03-19T13:20:19.966Z,1.40
2023-03-19T13:22:57.498Z,1.40
2023-03-19T13:25:27.985Z,0.83
2023-03-19T13:27:55.174Z,1.43
2023-03-19T13:30:22.477Z,1.30
2023-03-19T13:32:51.229Z,1.00
2023-03-19T13:35:34.530Z,2.87
2023-03-19T13:38:15.754Z,1.20
2023-03-19T13:40:52.141Z,1.20
2023-03-19T13:43:29.429Z,0.90
2023-03-19T13:46:39.146Z,1.67
2023-03-19T13:49:22.264Z,0.77
2023-03-19T13:51:51.845Z,1.43
2023-03-19T13:54:23.236Z,1.23
2023-03-19T13:57:10.747Z,1.93
2023-03-19T13:59:43.802Z,2.50
2023-03-19T14:02:22.739Z,1.10
2023-03-19T14:05:17.078Z,0.80
2023-03-19T14:07:48.166Z,1.30
2023-03-19T14:10:25.693Z,1.73
2023-03-19T14:13:00.750Z,2.50
2023-03-19T14:15:28.244Z,1.40
2023-03-19T14:18:01.914Z,1.20
2023-03-19T14:20:39.317Z,1.37
2023-03-19T14:23:11.591Z,1.10
2023-03-19T14:26:22.861Z,1.10
2023-03-19T14:29:07.245Z,1.10
2023-03-19T14:31:49.518Z,1.10
2023-03-19T14:34:32.950Z,1.17
2023-03-19T14:36:59.792Z,1.27
2023-03-19T14:39:29.244Z,1.50
2023-03-19T14:42:20.539Z,1.47
2023-03-19T14:45:14.474Z,1.50
2023-03-19T14:48:10.918Z,1.67
2023-03-19T14:51:03.764Z,1.57
2023-03-19T14:54:13.208Z,1.73
2023-03-19T14:56:41.913Z,1.37
2023-03-19T14:59:11.835Z,1.20
2023-03-19T15:01:44.378Z,2.17
2023-03-19T15:04:12.672Z,1.60
2023-03-19T15:06:42.243Z,1.87
2023-03-19T15:09:35.470Z,2.20
2023-03-19T15:12:17.627Z,1.63
2023-03-19T15:15:12.610Z,1.53
2023-03-19T15:17:39.455Z,2.60
2023-03-19T15:20:36.964Z,1.23
2023-03-19T15:23:13.350Z,2.47
2023-03-19T15:25:51.896Z,1.73
2023-03-19T15:28:20.298Z,1.50
2023-03-19T15:31:03.217Z,2.00
2023-03-19T15:33:40.829Z,2.00
2023-03-19T15:36:12.911Z,1.37
2023-03-19T15:38:52.073Z,2.17
2023-03-19T15:41:18.944Z,2.33
2023-03-19T15:43:48.748Z,1.70
2023-03-19T15:46:17.043Z,1.33
2023-03-19T15:48:51.255Z,1.60
2023-03-19T15:51:18.153Z,1.33
2023-03-19T15:53:45.141Z,1.53
2023-03-19T15:56:13.320Z,2.20
2023-03-19T15:58:42.649Z,3.40
2023-03-19T16:01:09.688Z,1.53
2023-03-19T16:03:38.629Z,1.37
2023-03-19T16:06:06.960Z,1.70
2023-03-19T16:08:33.818Z,2.23
2023-03-19T16:11:37.110Z,2.47
2023-03-19T16:14:11.120Z,1.73
2023-03-19T16:16:39.856Z,1.83
2023-03-19T16:19:07.131Z,2.90
2023-03-19T16:21:43.311Z,2.50
2023-03-19T16:24:24.526Z,2.30
2023-03-19T16:26:51.575Z,1.67
2023-03-19T16:29:23.752Z,2.80
2023-03-19T16:31:52.278Z,1.87
2023-03-19T16:34:32.208Z,1.57
2023-03-19T16:36:59.629Z,2.00
2023-03-19T16:39:35.628Z,2.70
2023-03-19T16:42:11.452Z,1.60
2023-03-19T16:44:41.650Z,1.57
2023-03-19T16:47:11.924Z,1.53
2023-03-19T16:49:38.695Z,1.30
2023-03-19T16:52:05.553Z,1.80
2023-03-19T16:54:32.373Z,1.57
2023-03-19T16:56:59.446Z,2.07
2023-03-19T16:59:29.753Z,3.17
2023-03-19T17:01:57.115Z,3.10
2023-03-19T17:04:24.173Z,2.80
2023-03-19T17:06:51.120Z,2.23
2023-03-19T17:09:18.039Z,3.00
2023-03-19T17:11:44.844Z,3.23
2023-03-19T17:14:16.667Z,4.40
2023-03-19T17:16:48.468Z,6.30
2023-03-19T17:19:19.607Z,4.57
2023-03-19T17:21:49.021Z,4.33
2023-03-19T17:24:27.006Z,3.60
2023-03-19T17:26:54.363Z,3.90
2023-03-19T17:29:23.007Z,3.53
2023-03-19T17:31:50.014Z,3.10
2023-03-19T17:34:21.391Z,3.57
2023-03-19T17:36:50.670Z,2.93
2023-03-19T17:39:17.421Z,5.10
2023-03-19T17:41:44.299Z,3.90
2023-03-19T17:44:11.124Z,3.50
2023-03-19T17:46:39.968Z,3.43
2023-03-19T17:49:09.279Z,2.83
2023-03-19T17:51:36.113Z,2.90
2023-03-19T17:54:02.875Z,4.00
2023-03-19T17:56:29.662Z,2.90
2023-03-19T17:58:56.542Z,2.37
2023-03-19T18:01:25.268Z,2.20
2023-03-19T18:03:53.464Z,2.10
2023-03-19T18:06:22.063Z,3.13
2023-03-19T18:08:48.767Z,2.10
2023-03-19T18:11:15.517Z,2.80
2023-03-19T18:13:42.507Z,1.90
2023-03-19T18:16:15.716Z,2.03
2023-03-19T18:18:42.477Z,2.40
2023-03-19T18:21:14.596Z,2.40
2023-03-19T18:23:41.847Z,2.90
2023-03-19T18:26:08.792Z,2.50
2023-03-19T18:28:35.668Z,2.70
2023-03-19T18:31:02.732Z,3.50
2023-03-19T18:33:29.950Z,2.57
2023-03-19T18:35:57.143Z,2.37
2023-03-19T18:38:25.396Z,2.80
2023-03-19T18:40:52.456Z,2.63
2023-03-19T18:43:19.372Z,2.30
2023-03-19T18:45:48.873Z,2.73
2023-03-19T18:48:28.868Z,4.20
2023-03-19T18:50:55.668Z,1.77
2023-03-19T18:53:22.622Z,1.63
2023-03-19T18:55:49.506Z,2.13
2023-03-19T18:58:21.836Z,1.87
2023-03-19T19:00:48.927Z,2.93
2023-03-19T19:03:17.023Z,2.20
2023-03-19T19:05:44.109Z,1.47
2023-03-19T19:08:18.832Z,1.47
2023-03-19T19:10:50.602Z,1.87
2023-03-19T19:13:25.228Z,2.63
2023-03-19T19:15:52.441Z,1.63
2023-03-19T19:18:23.824Z,1.97
2023-03-19T19:20:52.232Z,2.03
2023-03-19T19:23:19.313Z,1.80
2023-03-19T19:25:46.975Z,1.70
2023-03-19T19:28:15.362Z,1.83
2023-03-19T19:30:42.194Z,2.10
2023-03-19T19:33:29.119Z,1.90
2023-03-19T19:35:55.975Z,2.15
2023-03-19T19:38:22.696Z,2.27
2023-03-19T19:40:51.668Z,1.50
2023-03-19T19:43:23.284Z,1.73
2023-03-19T19:45:51.738Z,2.00
2023-03-19T19:48:24.612Z,2.33
2023-03-19T19:50:51.643Z,1.83
2023-03-19T19:53:18.475Z,1.60
2023-03-19T19:55:45.664Z,3.30
2023-03-19T19:58:36.941Z,1.83
2023-03-19T20:01:04.705Z,2.00
2023-03-19T20:03:32.612Z,1.93
2023-03-19T20:05:59.776Z,1.80
2023-03-19T20:08:27.164Z,2.17
2023-03-19T20:10:54.112Z,2.73
2023-03-19T20:13:26.065Z,2.03
2023-03-19T20:15:54.892Z,4.33
2023-03-19T20:18:22.464Z,3.13
2023-03-19T20:20:49.753Z,3.13
2023-03-19T20:23:16.682Z,3.17
2023-03-19T20:25:44.442Z,2.57
2023-03-19T20:28:21.676Z,2.90
2023-03-19T20:30:48.495Z,2.47
2023-03-19T20:33:16.300Z,2.47
2023-03-19T20:35:43.377Z,2.50
2023-03-19T20:38:10.604Z,2.77
2023-03-19T20:40:44.526Z,2.83
2023-03-19T20:43:34.777Z,2.93
2023-03-19T20:46:04.600Z,3.03
2023-03-19T20:48:32.124Z,4.23
2023-03-19T20:50:59.674Z,3.93
2023-03-19T20:53:26.529Z,3.60
2023-03-19T20:55:53.871Z,3.70
2023-03-19T20:58:37.020Z,5.23
2023-03-19T21:01:03.932Z,3.90
2023-03-19T21:03:31.692Z,3.83
2023-03-19T21:06:02.322Z,4.60
2023-03-19T21:08:33.937Z,2.77
2023-03-19T21:11:00.867Z,3.70
2023-03-19T21:13:27.677Z,2.63
2023-03-19T21:15:55.133Z,2.50
2023-03-19T21:18:22.010Z,3.20
2023-03-19T21:20:53.231Z,4.33
2023-03-19T21:23:25.820Z,3.40
2023-03-19T21:25:52.801Z,2.90
2023-03-19T21:28:24.554Z,5.90
2023-03-19T21:30:52.299Z,3.30
2023-03-19T21:33:27.131Z,2.60
2023-03-19T21:35:54.267Z,4.43
2023-03-19T21:38:21.745Z,3.70
2023-03-19T21:40:49.195Z,5.23
2023-03-19T21:43:32.764Z,2.63
2023-03-19T21:46:04.183Z,2.43
2023-03-19T21:48:39.987Z,2.40
2023-03-19T21:51:07.380Z,3.37
2023-03-19T21:53:34.146Z,2.90
2023-03-19T21:56:01.515Z,2.40
2023-03-19T21:58:32.984Z,2.40
2023-03-19T22:01:00.508Z,2.70
2023-03-19T22:03:27.700Z,2.77
2023-03-19T22:05:54.958Z,2.63
2023-03-19T22:08:23.811Z,3.03
2023-03-19T22:11:00.852Z,2.87
2023-03-19T22:13:33.984Z,2.30
2023-03-19T22:16:00.836Z,3.77
2023-03-19T22:18:28.292Z,2.70
2023-03-19T22:20:55.201Z,2.00
2023-03-19T22:23:22.589Z,2.47
2023-03-19T22:25:52.812Z,1.20
2023-03-19T22:28:31.856Z,3.37
2023-03-19T22:30:58.772Z,2.40
2023-03-19T22:33:26.338Z,1.67
2023-03-19T22:35:53.190Z,2.93
2023-03-19T22:38:21.188Z,2.40
2023-03-19T22:40:49.813Z,1.93
2023-03-19T22:43:32.291Z,2.07
2023-03-19T22:46:07.204Z,2.50
2023-03-19T22:48:34.304Z,2.63
2023-03-19T22:51:01.937Z,2.60
2023-03-19T22:53:30.624Z,2.70
2023-03-19T22:55:58.159Z,2.27
2023-03-19T22:58:25.352Z,2.83
2023-03-19T23:00:52.703Z,1.80
2023-03-19T23:03:24.783Z,2.00
2023-03-19T23:05:53.322Z,1.80
2023-03-19T23:08:20.523Z,1.83
2023-03-19T23:10:47.627Z,1.57
2023-03-19T23:13:15.246Z,1.90
2023-03-19T23:15:42.672Z,2.00
2023-03-19T23:18:21.752Z,1.70
2023-03-19T23:20:49.070Z,3.43
2023-03-19T23:23:16.376Z,7.03
2023-03-19T23:25:44.035Z,10.50
2023-03-19T23:28:22.634Z,21.13
2023-03-19T23:30:50.341Z,20.50
2023-03-19T23:33:18.525Z,26.67
2023-03-19T23:35:45.582Z,23.30
2023-03-19T23:38:12.872Z,11.43
2023-03-19T23:40:47.215Z,8.73
2023-03-19T23:43:22.871Z,4.47
2023-03-19T23:45:51.541Z,3.43
2023-03-19T23:48:26.756Z,2.47
2023-03-19T23:50:53.983Z,2.90
2023-03-19T23:53:25.511Z,3.00
2023-03-19T23:55:59.495Z,4.10
2023-03-19T23:58:42.722Z,3.70
